Time;durP1;ratioP1;P1;durP2;ratioP2;P2;SDS_P1;SDS_P2;PMS_P1;PMS_P2;Temp;Humidity;BMP_temperature;BMP_pressure;BME280_temperature;BME280_humidity;BME280_pressure;Samples;Min_cycle;Max_cycle;Signal;HPM_P1;HPM_P2
2023/05/11 00:01:24;;;;;;;12.95;9.32;;;16.70;95.80;;;;;;5047773;28;20057;-70
2023/05/11 00:03:50;;;;;;;13.55;9.02;;;16.70;95.90;;;;;;5049603;28;20033;-69
2023/05/11 00:06:16;;;;;;;15.35;9.95;;;16.70;95.90;;;;;;5029790;28;20643;-70
2023/05/11 00:08:41;;;;;;;15.00;10.00;;;16.70;95.90;;;;;;5049474;28;20033;-69
2023/05/11 00:11:09;;;;;;;14.60;9.27;;;16.70;95.90;;;;;;5044396;28;20044;-69
2023/05/11 00:13:34;;;;;;;15.40;9.68;;;16.60;96.00;;;;;;5046774;28;20033;-69
2023/05/11 00:16:00;;;;;;;13.27;9.75;;;16.60;96.10;;;;;;5046893;28;20041;-69
2023/05/11 00:18:26;;;;;;;12.30;9.18;;;16.60;96.20;;;;;;5047390;28;20036;-70
2023/05/11 00:20:51;;;;;;;15.77;9.48;;;16.50;96.20;;;;;;5047192;28;20045;-66
2023/05/11 00:23:17;;;;;;;14.48;9.73;;;16.50;96.30;;;;;;5041050;28;20055;-65
2023/05/11 00:25:42;;;;;;;14.80;10.20;;;16.50;96.10;;;;;;5038194;28;20473;-65
2023/05/11 00:28:09;;;;;;;15.68;11.30;;;16.40;96.20;;;;;;5044550;28;20393;-65
2023/05/11 00:30:35;;;;;;;16.40;11.30;;;16.50;96.40;;;;;;5047921;28;20045;-66
2023/05/11 00:33:00;;;;;;;12.73;9.77;;;16.40;96.60;;;;;;5049144;28;20040;-65
2023/05/11 00:35:26;;;;;;;14.90;10.13;;;16.50;96.70;;;;;;5048197;28;20600;-66
2023/05/11 00:37:51;;;;;;;14.38;9.05;;;16.40;96.70;;;;;;5048743;28;20025;-66
2023/05/11 00:40:17;;;;;;;15.68;10.50;;;16.40;96.80;;;;;;5048810;28;20503;-66
2023/05/11 00:42:43;;;;;;;13.43;9.07;;;16.40;96.70;;;;;;5047069;28;20033;-65
2023/05/11 00:45:10;;;;;;;13.38;9.32;;;16.30;96.90;;;;;;5043657;28;20128;-66
2023/05/11 00:47:36;;;;;;;15.60;9.82;;;16.30;96.70;;;;;;5048159;28;20033;-63
2023/05/11 00:50:02;;;;;;;15.23;10.63;;;16.30;96.90;;;;;;5048716;28;20087;-64
2023/05/11 00:52:28;;;;;;;13.98;9.32;;;16.20;96.90;;;;;;5047911;28;20483;-63
2023/05/11 00:54:54;;;;;;;14.13;10.60;;;16.20;96.90;;;;;;5048048;28;20128;-64
2023/05/11 00:57:20;;;;;;;13.00;9.90;;;16.20;97.00;;;;;;5043749;28;20116;-64
2023/05/11 00:59:47;;;;;;;13.48;9.48;;;16.20;97.10;;;;;;5040291;28;20685;-64
2023/05/11 01:02:13;;;;;;;12.32;9.82;;;16.10;97.20;;;;;;5041369;28;20037;-65
2023/05/11 01:04:39;;;;;;;15.25;9.63;;;16.10;97.30;;;;;;5040302;28;20522;-64
2023/05/11 01:07:24;;;;;;;12.90;9.35;;;16.00;97.40;;;;;;5038738;28;20048;-64
2023/05/11 01:10:20;;;;;;;15.63;10.70;;;16.00;97.60;;;;;;5050821;28;20158;-64
2023/05/11 01:12:48;;;;;;;;;;;16.00;97.40;;;;;;5041972;28;20106;-65
2023/05/11 01:15:46;;;;;;;13.30;8.50;;;15.90;97.00;;;;;;5050589;28;19909;-65
2023/05/11 01:18:21;;;;;;;13.98;9.55;;;15.90;97.50;;;;;;5047512;28;20037;-65
2023/05/11 01:20:48;;;;;;;14.85;10.20;;;15.80;97.60;;;;;;5047491;28;20045;-65
2023/05/11 01:23:38;;;;;;;14.35;9.95;;;15.80;97.90;;;;;;5045660;28;20109;-64
2023/05/11 01:26:20;;;;;;;12.57;9.93;;;15.80;98.10;;;;;;5044594;28;20528;-65
2023/05/11 01:29:02;;;;;;;11.98;9.77;;;15.70;98.20;;;;;;5045340;28;20048;-65
2023/05/11 01:31:31;;;;;;;11.57;9.07;;;15.70;98.30;;;;;;5051978;28;20048;-65
2023/05/11 01:34:01;;;;;;;14.38;9.93;;;15.70;98.40;;;;;;5053212;28;20031;-66
2023/05/11 01:36:36;;;;;;;13.35;8.85;;;15.70;98.60;;;;;;5051024;28;20096;-65
2023/05/11 01:39:06;;;;;;;13.23;9.65;;;15.60;98.70;;;;;;5051889;28;20028;-64
2023/05/11 01:41:34;;;;;;;15.75;9.63;;;15.60;98.80;;;;;;5052664;28;20055;-66
2023/05/11 01:44:05;;;;;;;13.13;10.35;;;15.60;98.90;;;;;;5052793;28;20032;-66
2023/05/11 01:46:32;;;;;;;14.82;9.82;;;15.50;99.00;;;;;;5053259;28;20065;-69
2023/05/11 01:49:00;;;;;;;14.52;10.27;;;15.50;99.10;;;;;;5072470;28;20029;-74
2023/05/11 01:51:29;;;;;;;17.27;10.70;;;15.50;99.20;;;;;;5060556;28;20045;-73
2023/05/11 01:53:57;;;;;;;13.15;9.95;;;15.50;99.30;;;;;;5052589;28;20486;-72
2023/05/11 01:56:25;;;;;;;10.32;8.85;;;15.40;99.30;;;;;;5066663;28;20025;-70
2023/05/11 01:58:54;;;;;;;14.30;10.45;;;15.40;99.40;;;;;;5065659;28;20063;-69
2023/05/11 02:01:20;;;;;;;14.52;9.38;;;15.30;99.50;;;;;;5045493;28;20517;-70
2023/05/11 02:03:46;;;;;;;13.23;9.23;;;15.30;99.60;;;;;;5050458;28;20041;-72
2023/05/11 02:06:14;;;;;;;14.82;10.40;;;15.30;99.70;;;;;;5050993;28;20514;-72
2023/05/11 02:08:40;;;;;;;10.68;9.07;;;15.30;99.80;;;;;;5050483;28;20053;-73
2023/05/11 02:11:08;;;;;;;10.15;8.65;;;15.30;99.90;;;;;;5046033;28;20025;-72
2023/05/11 02:13:37;;;;;;;11.25;9.00;;;15.30;99.90;;;;;;5050214;28;20033;-73
2023/05/11 02:16:04;;;;;;;11.98;9.18;;;15.30;99.90;;;;;;5049375;28;20037;-69
2023/05/11 02:18:31;;;;;;;11.55;9.32;;;15.20;99.90;;;;;;5050072;28;20243;-69
2023/05/11 02:20:59;;;;;;;12.18;10.05;;;15.20;99.90;;;;;;5046443;28;20045;-69
2023/05/11 02:23:26;;;;;;;11.30;9.68;;;15.20;99.90;;;;;;5049529;28;20043;-69
2023/05/11 02:25:53;;;;;;;12.10;9.88;;;15.10;99.90;;;;;;5047523;28;20518;-69
2023/05/11 02:28:19;;;;;;;12.40;9.68;;;15.10;99.90;;;;;;5046269;28;20045;-69
2023/05/11 02:30:47;;;;;;;12.10;9.32;;;15.10;99.90;;;;;;5035702;28;20049;-64
2023/05/11 02:33:27;;;;;;;11.50;9.05;;;15.00;99.90;;;;;;5032398;28;20568;-65
2023/05/11 02:35:54;;;;;;;9.77;8.40;;;15.00;99.90;;;;;;5049469;28;20522;-65
2023/05/11 02:38:23;;;;;;;15.25;9.02;;;15.00;99.90;;;;;;5047107;28;20417;-65
2023/05/11 02:40:53;;;;;;;13.75;9.32;;;14.90;99.90;;;;;;5049124;28;20110;-65
2023/05/11 02:43:23;;;;;;;10.90;9.20;;;14.90;99.90;;;;;;5049354;28;20056;-65
2023/05/11 02:45:52;;;;;;;13.13;9.23;;;14.90;99.90;;;;;;5054006;28;20044;-65
2023/05/11 02:48:26;;;;;;;10.60;9.32;;;14.80;99.90;;;;;;5047799;28;20509;-65
2023/05/11 02:50:54;;;;;;;10.35;8.40;;;14.80;99.90;;;;;;5050221;28;20092;-66
2023/05/11 02:53:21;;;;;;;8.38;7.32;;;14.80;99.90;;;;;;5051376;28;20049;-65
2023/05/11 02:55:49;;;;;;;11.07;8.65;;;14.80;99.90;;;;;;5049096;28;20090;-65
2023/05/11 02:58:16;;;;;;;10.57;8.90;;;14.80;99.90;;;;;;5049361;28;20040;-69
2023/05/11 03:00:42;;;;;;;9.80;8.10;;;14.70;99.90;;;;;;5049362;28;20055;-69
2023/05/11 03:03:07;;;;;;;11.90;8.40;;;14.80;99.90;;;;;;5049372;28;20509;-69
2023/05/11 03:05:33;;;;;;;12.45;8.65;;;14.70;99.90;;;;;;5047206;28;20064;-69
2023/05/11 03:07:59;;;;;;;11.27;9.07;;;14.70;99.90;;;;;;5048251;28;20037;-69
2023/05/11 03:10:26;;;;;;;11.30;9.02;;;14.70;99.90;;;;;;5047693;28;20036;-69
2023/05/11 03:12:52;;;;;;;11.95;9.45;;;14.60;99.90;;;;;;5049129;28;20045;-69
2023/05/11 03:15:19;;;;;;;12.93;9.18;;;14.60;99.90;;;;;;5048828;28;20045;-70
2023/05/11 03:17:46;;;;;;;12.20;8.90;;;14.50;99.90;;;;;;5047340;28;20104;-69
2023/05/11 03:20:13;;;;;;;10.27;8.52;;;14.50;99.90;;;;;;5048016;28;20140;-69
2023/05/11 03:22:39;;;;;;;10.93;7.80;;;14.60;99.90;;;;;;5047933;28;20045;-70
2023/05/11 03:25:06;;;;;;;11.63;8.38;;;14.50;99.90;;;;;;5047382;28;20052;-69
2023/05/11 03:27:33;;;;;;;11.52;8.55;;;14.50;99.90;;;;;;5049972;28;20036;-69
2023/05/11 03:30:00;;;;;;;10.27;8.65;;;14.50;99.90;;;;;;5028416;28;20463;-71
2023/05/11 03:32:26;;;;;;;10.93;8.75;;;14.50;99.90;;;;;;5049202;28;20051;-70
2023/05/11 03:34:51;;;;;;;10.52;7.75;;;14.50;99.90;;;;;;5047452;28;20490;-70
2023/05/11 03:37:19;;;;;;;9.85;8.32;;;14.50;99.90;;;;;;5044995;28;20060;-71
2023/05/11 03:39:51;;;;;;;10.85;8.50;;;14.40;99.90;;;;;;5048343;28;20080;-70
2023/05/11 03:42:19;;;;;;;9.60;8.45;;;14.40;99.90;;;;;;5048198;28;20036;-71
2023/05/11 03:44:47;;;;;;;10.63;8.20;;;14.40;99.90;;;;;;5031449;28;20052;-71
2023/05/11 03:47:16;;;;;;;9.82;7.53;;;14.40;99.90;;;;;;5047681;28;20476;-71
2023/05/11 03:49:42;;;;;;;10.95;8.18;;;14.40;99.90;;;;;;5047377;28;20029;-72
2023/05/11 03:52:08;;;;;;;9.68;7.47;;;14.40;99.90;;;;;;5047838;28;20045;-71
2023/05/11 03:54:34;;;;;;;8.85;7.88;;;14.40;99.90;;;;;;5048421;28;20514;-71
2023/05/11 03:57:00;;;;;;;11.57;8.85;;;14.40;99.90;;;;;;5047630;28;20056;-71
2023/05/11 03:59:26;;;;;;;9.13;7.60;;;14.40;99.90;;;;;;5048156;28;20037;-71
2023/05/11 04:01:52;;;;;;;9.35;8.15;;;14.40;99.90;;;;;;5046651;28;20087;-71
2023/05/11 04:04:28;;;;;;;10.90;7.63;;;14.40;99.90;;;;;;5048850;28;20132;-71
2023/05/11 04:06:54;;;;;;;9.15;7.78;;;14.30;99.90;;;;;;5046643;28;20355;-71
2023/05/11 04:09:20;;;;;;;9.55;7.80;;;14.40;99.90;;;;;;5035958;28;20399;-70
2023/05/11 04:11:45;;;;;;;9.35;8.23;;;14.30;99.90;;;;;;5047497;28;20029;-72
2023/05/11 04:14:11;;;;;;;9.05;7.82;;;14.40;99.90;;;;;;5031554;28;20033;-72
2023/05/11 04:16:36;;;;;;;9.90;8.40;;;14.40;99.90;;;;;;5047018;28;20037;-72
2023/05/11 04:19:02;;;;;;;9.45;7.70;;;14.40;99.80;;;;;;5031168;28;20114;-71
2023/05/11 04:21:28;;;;;;;9.05;7.38;;;14.40;99.70;;;;;;5045663;28;20044;-72
2023/05/11 04:23:53;;;;;;;9.65;7.93;;;14.40;99.60;;;;;;5048207;28;20040;-74
2023/05/11 04:26:19;;;;;;;9.55;7.78;;;14.40;99.60;;;;;;5048034;28;20131;-72
2023/05/11 04:28:45;;;;;;;9.50;7.85;;;14.40;99.50;;;;;;5043659;28;20163;-71
2023/05/11 04:31:11;;;;;;;10.18;7.07;;;14.30;99.40;;;;;;5048494;28;20561;-70
2023/05/11 04:33:36;;;;;;;8.98;7.38;;;14.30;99.30;;;;;;5048226;28;20044;-70
2023/05/11 04:36:02;;;;;;;10.82;7.20;;;14.40;99.30;;;;;;5044883;28;20075;-70
2023/05/11 04:38:28;;;;;;;9.73;6.75;;;14.40;99.30;;;;;;5042004;28;20080;-70
2023/05/11 04:40:53;;;;;;;10.40;7.30;;;14.40;99.20;;;;;;5040482;28;20045;-69
2023/05/11 04:43:19;;;;;;;8.13;6.72;;;14.40;99.00;;;;;;5042245;28;20087;-69
2023/05/11 04:45:51;;;;;;;8.45;6.63;;;14.40;99.00;;;;;;5047662;28;20041;-69
2023/05/11 04:48:16;;;;;;;8.35;6.80;;;14.40;98.90;;;;;;5047362;28;20047;-70
2023/05/11 04:50:42;;;;;;;8.68;7.05;;;14.50;98.80;;;;;;5048916;28;20401;-73
2023/05/11 04:53:09;;;;;;;10.32;5.88;;;14.50;98.60;;;;;;5043286;28;20060;-71
2023/05/11 04:55:34;;;;;;;9.50;5.85;;;14.50;98.70;;;;;;5049755;28;20029;-71
2023/05/11 04:58:00;;;;;;;7.00;6.30;;;14.50;98.40;;;;;;5030008;28;20544;-70
2023/05/11 05:00:25;;;;;;;8.32;5.93;;;14.50;98.30;;;;;;5044723;28;20056;-71
2023/05/11 05:02:51;;;;;;;12.73;6.70;;;14.50;98.20;;;;;;5050888;28;20642;-71
2023/05/11 05:05:17;;;;;;;13.10;6.70;;;14.60;98.10;;;;;;5052699;28;20478;-71
2023/05/11 05:07:43;;;;;;;10.80;5.75;;;14.60;98.00;;;;;;5053888;28;20044;-71
2023/05/11 05:10:11;;;;;;;18.77;6.45;;;14.60;97.90;;;;;;5049648;28;20446;-72
2023/05/11 05:12:37;;;;;;;9.13;5.93;;;14.70;97.80;;;;;;5052732;28;20087;-74
2023/05/11 05:15:04;;;;;;;8.30;5.63;;;14.70;97.70;;;;;;5051594;28;20525;-73
2023/05/11 05:17:30;;;;;;;9.73;6.05;;;14.70;97.70;;;;;;5052041;28;20045;-73
2023/05/11 05:19:56;;;;;;;8.13;5.68;;;14.80;97.70;;;;;;5045610;28;20459;-73
2023/05/11 05:22:23;;;;;;;8.80;6.40;;;14.80;97.60;;;;;;5020880;28;20037;-73
2023/05/11 05:24:48;;;;;;;10.38;5.70;;;14.90;97.60;;;;;;5050693;28;20052;-74
2023/05/11 05:27:14;;;;;;;11.07;5.70;;;14.90;97.40;;;;;;5030281;28;20037;-73
2023/05/11 05:29:39;;;;;;;7.18;6.25;;;14.90;97.30;;;;;;5047254;28;20057;-72
2023/05/11 05:32:05;;;;;;;7.22;6.10;;;15.00;97.30;;;;;;5050062;28;20513;-72
2023/05/11 05:34:31;;;;;;;6.90;5.70;;;15.00;97.30;;;;;;5050357;28;20040;-72
2023/05/11 05:36:56;;;;;;;8.45;5.93;;;15.10;97.20;;;;;;5052120;28;20033;-73
2023/05/11 05:39:22;;;;;;;8.43;5.75;;;15.10;97.20;;;;;;5050019;28;20044;-71
2023/05/11 05:41:47;;;;;;;9.93;5.78;;;15.20;97.10;;;;;;5050791;28;20041;-72
2023/05/11 05:44:13;;;;;;;7.28;5.40;;;15.20;97.00;;;;;;5049932;28;20037;-71
2023/05/11 05:46:39;;;;;;;8.55;5.47;;;15.30;96.90;;;;;;5049587;28;20064;-71
2023/05/11 05:49:07;;;;;;;7.82;4.97;;;15.30;96.80;;;;;;5039920;28;20041;-70
2023/05/11 05:51:33;;;;;;;8.30;5.78;;;15.40;96.70;;;;;;5049729;28;20080;-71
2023/05/11 05:53:59;;;;;;;7.72;5.57;;;15.40;96.60;;;;;;5046692;28;20047;-70
2023/05/11 05:56:25;;;;;;;8.55;5.35;;;15.50;96.50;;;;;;5051748;28;20041;-72
2023/05/11 05:58:51;;;;;;;10.65;5.88;;;15.50;96.40;;;;;;5051750;28;20041;-71
2023/05/11 06:01:17;;;;;;;9.70;5.78;;;15.60;96.30;;;;;;5047182;28;20071;-73
2023/05/11 06:03:44;;;;;;;7.38;5.53;;;15.70;96.30;;;;;;5041267;28;20024;-72
2023/05/11 06:06:10;;;;;;;6.18;4.80;;;15.70;96.30;;;;;;5050389;28;20494;-72
2023/05/11 06:08:36;;;;;;;8.48;5.32;;;15.80;96.20;;;;;;5050515;28;20494;-77
2023/05/11 06:11:02;;;;;;;7.05;4.53;;;15.90;96.00;;;;;;5045679;28;20040;-74
2023/05/11 06:13:27;;;;;;;7.60;4.53;;;16.00;95.90;;;;;;5043213;28;20112;-74
2023/05/11 06:15:53;;;;;;;6.78;4.70;;;16.00;95.70;;;;;;5050078;28;20041;-75
2023/05/11 06:18:18;;;;;;;6.13;4.53;;;16.10;95.70;;;;;;5056654;28;20073;-75
2023/05/11 06:20:44;;;;;;;6.78;4.07;;;16.20;95.50;;;;;;5050713;28;20577;-71
2023/05/11 06:23:10;;;;;;;6.03;4.30;;;16.30;95.20;;;;;;5043855;28;20084;-71
2023/05/11 06:25:36;;;;;;;6.38;4.28;;;16.30;95.10;;;;;;5044179;28;20505;-71
2023/05/11 06:28:02;;;;;;;5.47;4.50;;;16.40;95.00;;;;;;5044518;28;20033;-71
2023/05/11 06:30:28;;;;;;;7.50;4.25;;;16.50;94.80;;;;;;5049325;28;20506;-70
2023/05/11 06:32:54;;;;;;;9.10;5.60;;;16.60;94.70;;;;;;5045809;28;20402;-71
2023/05/11 06:35:20;;;;;;;7.32;4.13;;;16.60;94.40;;;;;;5047529;28;20040;-71
2023/05/11 06:37:46;;;;;;;6.70;4.35;;;16.70;94.20;;;;;;5047322;28;20109;-75
2023/05/11 06:40:12;;;;;;;12.20;4.45;;;16.80;93.90;;;;;;5029030;28;20547;-76
2023/05/11 06:42:38;;;;;;;5.30;3.85;;;16.90;94.00;;;;;;5050724;28;20497;-75
2023/05/11 06:45:04;;;;;;;6.57;3.83;;;17.00;93.80;;;;;;5051521;28;20048;-75
2023/05/11 06:47:29;;;;;;;5.82;4.57;;;17.00;93.50;;;;;;5049492;28;20125;-75
2023/05/11 06:49:55;;;;;;;6.38;3.95;;;17.10;93.30;;;;;;5049031;28;20533;-72
2023/05/11 06:52:20;;;;;;;4.65;3.47;;;17.20;93.20;;;;;;5033885;28;20494;-72
2023/05/11 06:54:46;;;;;;;5.25;3.40;;;17.30;93.00;;;;;;5043008;28;20041;-78
2023/05/11 06:57:11;;;;;;;7.55;3.60;;;17.40;92.90;;;;;;5045278;28;20037;-72
2023/05/11 06:59:37;;;;;;;6.18;3.45;;;17.50;92.70;;;;;;5050055;28;20044;-72
2023/05/11 07:02:03;;;;;;;6.55;3.42;;;17.50;92.50;;;;;;5050585;28;20072;-72
2023/05/11 07:04:28;;;;;;;5.22;2.65;;;17.60;92.50;;;;;;5035174;28;20033;-74
2023/05/11 07:06:54;;;;;;;5.68;2.78;;;17.70;92.20;;;;;;5049371;28;20041;-73
2023/05/11 07:09:20;;;;;;;7.35;3.03;;;17.80;92.00;;;;;;5031724;28;20037;-73
2023/05/11 07:11:45;;;;;;;4.03;3.00;;;17.90;91.90;;;;;;5048245;28;20100;-73
2023/05/11 07:14:11;;;;;;;5.10;3.08;;;17.90;91.70;;;;;;5044388;28;20039;-72
2023/05/11 07:16:37;;;;;;;4.63;3.50;;;18.00;91.70;;;;;;5039759;28;20146;-71
2023/05/11 07:19:08;;;;;;;7.57;3.38;;;18.10;91.50;;;;;;5035119;28;20033;-72
2023/05/11 07:21:35;;;;;;;5.35;3.00;;;18.20;91.20;;;;;;5044072;28;20168;-71
2023/05/11 07:24:02;;;;;;;4.43;3.03;;;18.20;90.80;;;;;;5042194;28;23480;-72
2023/05/11 07:26:27;;;;;;;5.63;2.58;;;18.30;90.70;;;;;;5043731;28;20033;-72
2023/05/11 07:28:53;;;;;;;3.53;2.47;;;18.40;90.50;;;;;;5043498;28;20046;-72
2023/05/11 07:31:19;;;;;;;9.93;2.90;;;18.50;90.20;;;;;;5028001;28;20072;-72
2023/05/11 07:33:44;;;;;;;7.80;3.08;;;18.50;90.20;;;;;;5047124;28;20490;-72
2023/05/11 07:36:10;;;;;;;4.75;2.40;;;18.50;90.00;;;;;;5042745;28;20766;-72
2023/05/11 07:38:36;;;;;;;6.60;3.10;;;18.60;89.50;;;;;;5045375;28;20502;-72
2023/05/11 07:41:02;;;;;;;6.38;2.40;;;18.70;89.10;;;;;;5032542;28;20140;-72
2023/05/11 07:43:28;;;;;;;7.10;3.10;;;18.80;88.90;;;;;;5043895;28;20414;-71
2023/05/11 07:45:53;;;;;;;5.35;2.70;;;18.90;88.50;;;;;;5032504;28;20037;-72
2023/05/11 07:48:20;;;;;;;3.90;2.47;;;18.90;88.20;;;;;;5048615;28;20037;-72
2023/05/11 07:50:46;;;;;;;5.32;2.70;;;19.00;88.00;;;;;;5046179;28;20051;-72
2023/05/11 07:53:11;;;;;;;4.30;2.60;;;19.10;87.40;;;;;;5028038;28;20132;-71
2023/05/11 07:55:37;;;;;;;6.97;3.00;;;19.20;86.70;;;;;;5039686;28;20041;-71
2023/05/11 07:58:02;;;;;;;4.75;3.00;;;19.20;86.80;;;;;;5047247;28;20048;-71
2023/05/11 08:00:28;;;;;;;3.92;2.60;;;19.30;86.20;;;;;;5047749;28;20076;-72
2023/05/11 08:02:54;;;;;;;3.80;2.70;;;19.30;86.10;;;;;;5049887;28;20041;-72
2023/05/11 08:05:20;;;;;;;3.72;2.22;;;19.40;85.50;;;;;;5045427;28;20514;-72
2023/05/11 08:07:46;;;;;;;3.17;2.05;;;19.40;84.80;;;;;;5049155;28;20036;-72
2023/05/11 08:10:12;;;;;;;4.35;2.20;;;19.50;84.40;;;;;;5046455;28;20502;-72
2023/05/11 08:12:38;;;;;;;4.70;2.42;;;19.50;84.30;;;;;;5041238;28;20049;-72
2023/05/11 08:15:04;;;;;;;5.97;2.95;;;19.60;83.90;;;;;;5040682;28;20083;-72
2023/05/11 08:17:30;;;;;;;4.28;2.55;;;19.60;83.70;;;;;;5034524;28;20037;-72
2023/05/11 08:19:56;;;;;;;3.67;2.72;;;19.70;83.50;;;;;;5046724;28;20461;-72
2023/05/11 08:22:22;;;;;;;4.25;2.15;;;19.80;83.20;;;;;;5039850;28;20501;-71
2023/05/11 08:24:52;;;;;;;3.78;2.75;;;19.90;82.90;;;;;;5025329;28;20033;-71
2023/05/11 08:27:17;;;;;;;3.40;2.50;;;19.90;82.40;;;;;;5047574;28;20509;-71
2023/05/11 08:29:43;;;;;;;4.45;2.95;;;20.00;82.40;;;;;;5048062;28;20049;-71
2023/05/11 08:32:09;;;;;;;3.60;2.85;;;20.00;82.40;;;;;;5047026;28;20048;-71
2023/05/11 08:34:34;;;;;;;3.85;2.42;;;20.10;82.60;;;;;;5046384;28;20797;-71
2023/05/11 08:37:00;;;;;;;6.68;2.97;;;20.20;82.20;;;;;;5046674;28;20124;-71
2023/05/11 08:39:27;;;;;;;4.38;2.63;;;20.20;82.30;;;;;;5044717;28;20496;-71
2023/05/11 08:41:55;;;;;;;5.82;2.90;;;20.30;82.00;;;;;;5043858;28;20041;-72
2023/05/11 08:44:22;;;;;;;3.88;2.50;;;20.40;81.20;;;;;;5026166;28;20494;-72
2023/05/11 08:46:49;;;;;;;4.13;2.58;;;20.40;81.50;;;;;;5047470;28;20124;-71
2023/05/11 08:49:14;;;;;;;4.90;2.65;;;20.50;81.40;;;;;;5028032;28;20060;-71
2023/05/11 08:51:40;;;;;;;4.72;2.47;;;20.60;80.50;;;;;;5039350;28;20029;-72
2023/05/11 08:54:06;;;;;;;4.25;2.45;;;20.70;81.00;;;;;;5047185;28;20044;-71
2023/05/11 08:56:34;;;;;;;8.02;3.08;;;20.70;80.10;;;;;;5044265;28;20441;-71
2023/05/11 08:59:03;;;;;;;4.57;2.47;;;20.80;79.60;;;;;;5044362;28;20033;-72
2023/05/11 09:01:29;;;;;;;4.72;2.50;;;20.90;79.50;;;;;;5045669;28;20462;-71
2023/05/11 09:03:56;;;;;;;3.38;2.40;;;21.00;79.30;;;;;;5025786;28;20044;-71
2023/05/11 09:06:26;;;;;;;4.07;2.45;;;21.00;79.40;;;;;;5043345;28;20057;-72
2023/05/11 09:08:52;;;;;;;3.92;2.70;;;21.10;79.00;;;;;;5046998;28;20098;-70
2023/05/11 09:11:18;;;;;;;3.65;2.47;;;21.20;78.50;;;;;;5043625;28;20108;-72
2023/05/11 09:13:44;;;;;;;5.18;2.70;;;21.30;78.70;;;;;;5042135;28;20171;-72
2023/05/11 09:16:10;;;;;;;3.20;2.33;;;21.40;78.20;;;;;;5043444;28;20478;-71
2023/05/11 09:18:48;;;;;;;3.63;2.65;;;21.40;77.50;;;;;;5043003;28;20045;-71
2023/05/11 09:21:14;;;;;;;7.53;2.97;;;21.50;76.80;;;;;;5045757;28;20410;-72
2023/05/11 09:23:40;;;;;;;20.13;4.30;;;21.50;75.90;;;;;;5042426;28;20049;-64
2023/05/11 09:26:16;;;;;;;9.15;2.35;;;21.60;74.10;;;;;;5040520;28;20043;-69
2023/05/11 09:28:54;;;;;;;9.13;3.17;;;21.70;74.00;;;;;;5040850;28;20043;-72
2023/05/11 09:31:35;;;;;;;2.85;2.28;;;21.70;73.60;;;;;;5041835;28;20082;-70
2023/05/11 09:34:21;;;;;;;6.60;2.15;;;21.80;72.50;;;;;;5044339;28;20505;-70
2023/05/11 09:36:51;;;;;;;3.42;2.10;;;21.90;72.20;;;;;;5041460;28;20178;-72
2023/05/11 09:39:26;;;;;;;5.30;3.15;;;21.90;71.70;;;;;;5040636;28;20116;-72
2023/05/11 09:42:14;;;;;;;7.00;2.60;;;22.00;70.30;;;;;;5042228;28;20053;-71
2023/05/11 09:44:42;;;;;;;4.28;2.60;;;22.10;69.80;;;;;;5034533;28;20411;-70
2023/05/11 09:47:17;;;;;;;5.88;2.58;;;22.10;69.70;;;;;;5040466;28;20059;-70
2023/05/11 09:49:45;;;;;;;6.20;2.28;;;22.20;69.20;;;;;;5036486;28;20040;-71
2023/05/11 09:52:13;;;;;;;3.63;2.20;;;22.20;68.50;;;;;;5043512;28;20037;-71
2023/05/11 09:54:46;;;;;;;3.10;2.00;;;22.20;68.40;;;;;;5030305;28;20437;-71
2023/05/11 09:57:26;;;;;;;4.47;2.40;;;22.30;68.40;;;;;;5045981;28;20038;-71
2023/05/11 09:59:53;;;;;;;6.28;3.50;;;22.40;69.20;;;;;;5030852;28;20064;-70
2023/05/11 10:02:26;;;;;;;2.90;1.98;;;22.50;69.20;;;;;;5047356;28;20040;-70
2023/05/11 10:04:54;;;;;;;4.32;2.45;;;22.60;68.20;;;;;;5027074;28;20387;-70
2023/05/11 10:07:38;;;;;;;5.00;2.95;;;22.60;67.40;;;;;;5040844;28;20067;-70
2023/05/11 10:10:08;;;;;;;5.10;2.53;;;22.60;67.80;;;;;;5047490;28;20441;-70
2023/05/11 10:12:37;;;;;;;5.50;2.03;;;22.70;67.60;;;;;;5043693;28;20131;-71
2023/05/11 10:15:07;;;;;;;4.03;2.60;;;22.80;67.40;;;;;;5036944;28;20041;-70
2023/05/11 10:17:34;;;;;;;3.80;2.50;;;22.80;66.50;;;;;;5034852;28;20059;-69
2023/05/11 10:20:03;;;;;;;4.35;2.92;;;22.80;66.10;;;;;;5043268;28;20049;-71
2023/05/11 10:22:29;;;;;;;2.90;2.15;;;22.90;65.70;;;;;;5045115;28;20044;-69
2023/05/11 10:24:56;;;;;;;3.40;2.55;;;22.80;64.80;;;;;;5049526;28;20037;-70
2023/05/11 10:27:22;;;;;;;4.45;2.47;;;22.70;64.70;;;;;;5039067;28;20032;-70
2023/05/11 10:29:49;;;;;;;4.32;1.90;;;22.70;64.60;;;;;;5047894;28;20040;-71
2023/05/11 10:32:16;;;;;;;3.65;1.88;;;22.70;64.10;;;;;;5041652;28;20036;-71
2023/05/11 10:34:43;;;;;;;3.10;1.92;;;22.70;63.80;;;;;;5030284;28;20107;-70
2023/05/11 10:37:10;;;;;;;5.13;2.90;;;22.80;63.70;;;;;;5024162;28;20029;-71
2023/05/11 10:39:37;;;;;;;4.57;2.83;;;22.90;64.40;;;;;;5029626;28;20044;-70
2023/05/11 10:42:40;;;;;;;2.55;2.05;;;23.00;64.10;;;;;;5042689;28;20128;-70
2023/05/11 10:45:27;;;;;;;2.70;1.60;;;23.10;64.10;;;;;;5048873;28;20119;-70
2023/05/11 10:48:15;;;;;;;4.60;2.25;;;23.20;64.10;;;;;;5044548;28;21224;-71
2023/05/11 10:51:11;;;;;;;2.47;1.92;;;23.20;63.60;;;;;;5029411;28;20032;-71
2023/05/11 10:53:51;;;;;;;4.68;2.13;;;23.20;63.20;;;;;;5044489;28;20044;-70
2023/05/11 10:56:25;;;;;;;3.22;2.00;;;23.20;62.90;;;;;;5043455;28;20033;-70
2023/05/11 10:59:12;;;;;;;2.85;1.92;;;23.20;63.00;;;;;;5039437;28;20041;-70
2023/05/11 11:01:42;;;;;;;2.55;1.80;;;23.30;62.70;;;;;;5047668;28;20048;-70
2023/05/11 11:04:10;;;;;;;3.42;2.25;;;23.30;62.70;;;;;;5048948;28;20589;-71
2023/05/11 11:06:41;;;;;;;3.13;2.10;;;23.30;62.40;;;;;;5032543;28;20037;-70
2023/05/11 11:09:15;;;;;;;2.65;1.48;;;23.40;61.80;;;;;;5047313;28;20103;-71
2023/05/11 11:11:45;;;;;;;4.07;2.08;;;23.40;61.30;;;;;;5042849;28;20033;-70
2023/05/11 11:14:15;;;;;;;2.35;1.63;;;23.50;61.40;;;;;;5047675;28;20094;-71
2023/05/11 11:17:01;;;;;;;3.30;1.88;;;23.50;60.30;;;;;;5038877;28;20068;-71
2023/05/11 11:19:29;;;;;;;5.07;2.10;;;23.60;60.80;;;;;;5043892;28;20256;-70
2023/05/11 11:22:01;;;;;;;2.75;1.70;;;23.70;61.10;;;;;;5039063;28;20418;-70
2023/05/11 11:24:36;;;;;;;3.28;2.13;;;23.70;60.80;;;;;;5038217;28;20065;-70
2023/05/11 11:27:02;;;;;;;3.97;1.55;;;23.70;61.10;;;;;;5047371;28;20033;-71
2023/05/11 11:29:29;;;;;;;2.95;1.83;;;23.60;60.80;;;;;;5045347;28;20462;-70
2023/05/11 11:32:15;;;;;;;2.53;1.65;;;23.60;60.70;;;;;;5047873;28;20084;-70
2023/05/11 11:34:40;;;;;;;6.05;2.10;;;23.50;60.70;;;;;;5045679;28;20105;-70
2023/05/11 11:37:07;;;;;;;3.80;1.88;;;23.50;60.90;;;;;;5030605;28;20080;-70
2023/05/11 11:39:42;;;;;;;2.95;1.98;;;23.50;60.60;;;;;;5041296;28;20041;-74
2023/05/11 11:42:31;;;;;;;2.90;2.08;;;23.50;60.30;;;;;;5045790;28;20079;-74
2023/05/11 11:45:27;;;;;;;2.58;1.70;;;23.50;60.10;;;;;;5043185;28;20059;-74
2023/05/11 11:48:11;;;;;;;4.63;2.33;;;23.50;60.10;;;;;;5033221;28;20065;-74
2023/05/11 11:50:39;;;;;;;2.33;1.48;;;23.40;59.10;;;;;;5021698;28;20037;-73
2023/05/11 11:53:04;;;;;;;2.55;1.70;;;23.40;58.60;;;;;;5046800;28;20403;-74
2023/05/11 11:55:48;;;;;;;2.30;1.60;;;23.30;58.30;;;;;;5046480;28;20045;-74
2023/05/11 11:58:39;;;;;;;2.53;1.55;;;23.30;58.40;;;;;;5044933;28;20099;-74
2023/05/11 12:01:05;;;;;;;5.35;2.00;;;23.20;58.70;;;;;;5026405;28;20037;-73
2023/05/11 12:03:34;;;;;;;3.53;1.40;;;23.20;58.20;;;;;;5023764;28;20087;-73
2023/05/11 12:06:02;;;;;;;2.10;1.70;;;23.20;58.00;;;;;;5046947;28;20033;-73
2023/05/11 12:08:31;;;;;;;4.82;2.03;;;23.20;58.30;;;;;;5023804;28;20053;-73
2023/05/11 12:10:58;;;;;;;3.20;1.88;;;23.30;58.30;;;;;;5046271;28;20049;-73
2023/05/11 12:13:24;;;;;;;2.88;1.40;;;23.40;59.10;;;;;;5043288;28;20099;-73
2023/05/11 12:16:06;;;;;;;3.85;1.88;;;23.50;58.70;;;;;;5046192;28;20914;-72
2023/05/11 12:18:31;;;;;;;2.78;1.38;;;23.60;58.50;;;;;;5039160;28;20041;-73
2023/05/11 12:20:57;;;;;;;3.45;1.48;;;23.80;58.10;;;;;;5042024;28;20052;-73
2023/05/11 12:23:23;;;;;;;3.53;1.58;;;23.90;57.50;;;;;;5044647;28;20036;-73
2023/05/11 12:26:06;;;;;;;1.95;1.52;;;24.00;57.10;;;;;;5027178;28;20045;-73
2023/05/11 12:28:32;;;;;;;3.03;1.27;;;24.00;56.10;;;;;;5043469;28;20390;-73
2023/05/11 12:30:58;;;;;;;2.83;1.50;;;24.10;55.70;;;;;;5042875;28;20045;-73
2023/05/11 12:33:23;;;;;;;2.67;1.77;;;24.20;55.20;;;;;;5045479;28;20036;-73
2023/05/11 12:35:54;;;;;;;2.08;1.42;;;24.30;55.10;;;;;;5042334;28;20037;-73
2023/05/11 12:38:20;;;;;;;4.68;1.70;;;24.50;54.50;;;;;;5042106;28;20064;-74
2023/05/11 12:40:50;;;;;;;2.55;1.98;;;24.60;54.80;;;;;;5043804;28;20128;-73
2023/05/11 12:43:17;;;;;;;2.08;1.67;;;24.60;55.20;;;;;;5042185;28;20044;-73
2023/05/11 12:45:43;;;;;;;3.20;1.73;;;24.70;54.90;;;;;;5041629;28;20055;-73
2023/05/11 12:48:10;;;;;;;5.70;1.60;;;24.70;54.30;;;;;;5037509;28;20037;-74
2023/05/11 12:50:44;;;;;;;2.33;1.65;;;24.80;54.50;;;;;;5042721;28;20367;-73